createdAt,value
2019-02-12T00:01:06.781Z,48.90
2019-02-12T00:03:34.734Z,45.80
2019-02-12T00:06:02.924Z,44.30
2019-02-12T00:08:31.036Z,44.10
2019-02-12T00:10:59.511Z,44.50
2019-02-12T00:13:27.514Z,44.60
2019-02-12T00:15:55.538Z,45.40
2019-02-12T00:18:23.674Z,45.00
2019-02-12T00:20:51.668Z,44.80
2019-02-12T00:23:19.689Z,44.20
2019-02-12T00:25:47.717Z,47.30
2019-02-12T00:28:15.764Z,46.50
2019-02-12T00:30:43.797Z,45.20
2019-02-12T00:33:11.787Z,46.20
2019-02-12T00:35:39.781Z,46.20
2019-02-12T00:38:07.787Z,48.20
2019-02-12T00:40:35.850Z,47.60
2019-02-12T00:43:03.810Z,47.50
2019-02-12T00:45:31.873Z,48.80
2019-02-12T00:47:59.902Z,48.90
2019-02-12T00:50:28.024Z,49.10
2019-02-12T00:52:56.048Z,50.10
2019-02-12T00:55:24.324Z,49.30
2019-02-12T00:57:52.377Z,50.60
2019-02-12T01:00:21.004Z,49.60
2019-02-12T01:02:49.414Z,49.50
2019-02-12T01:05:17.573Z,48.20
2019-02-12T01:07:45.987Z,46.90
2019-02-12T01:10:14.412Z,47.30
2019-02-12T01:12:42.834Z,49.30
2019-02-12T01:15:12.342Z,49.30
2019-02-12T01:17:40.504Z,49.10
2019-02-12T01:20:10.046Z,48.30
2019-02-12T01:22:38.306Z,48.20
2019-02-12T01:25:06.973Z,46.70
2019-02-12T01:27:35.194Z,46.40
2019-02-12T01:30:03.706Z,47.90
2019-02-12T01:32:31.779Z,48.60
2019-02-12T01:34:59.752Z,48.70
2019-02-12T01:37:28.055Z,48.90
2019-02-12T01:39:56.022Z,49.70
2019-02-12T01:42:24.059Z,50.40
2019-02-12T01:44:52.074Z,50.50
2019-02-12T01:47:20.127Z,49.60
2019-02-12T01:49:48.147Z,49.20
2019-02-12T01:52:16.481Z,49.70
2019-02-12T01:54:44.856Z,50.80
2019-02-12T01:57:12.990Z,51.50
2019-02-12T01:59:41.048Z,52.10
2019-02-12T02:02:09.698Z,51.60
2019-02-12T02:04:37.732Z,51.50
2019-02-12T02:07:06.194Z,50.90
2019-02-12T02:09:34.235Z,51.00
2019-02-12T02:12:02.466Z,50.00
2019-02-12T02:14:31.089Z,50.10
2019-02-12T02:16:59.017Z,49.80
2019-02-12T02:19:27.484Z,50.00
2019-02-12T02:21:56.515Z,49.90
2019-02-12T02:24:24.502Z,49.90
2019-02-12T02:26:52.480Z,50.50
2019-02-12T02:29:20.485Z,50.90
2019-02-12T02:31:48.479Z,51.40
2019-02-12T02:34:16.546Z,50.80
2019-02-12T02:36:44.449Z,50.40
2019-02-12T02:39:12.450Z,50.20
2019-02-12T02:41:40.418Z,51.20
2019-02-12T02:44:08.352Z,51.60
2019-02-12T02:46:36.351Z,50.80
2019-02-12T02:49:04.676Z,51.80
2019-02-12T02:51:33.075Z,51.60
2019-02-12T02:54:01.340Z,51.50
2019-02-12T02:56:29.321Z,52.30
2019-02-12T02:58:57.493Z,52.10
2019-02-12T03:01:25.739Z,51.80
2019-02-12T03:03:53.658Z,49.70
2019-02-12T03:06:22.219Z,49.80
2019-02-12T03:08:50.502Z,51.30
2019-02-12T03:11:18.480Z,51.60
2019-02-12T03:13:46.541Z,52.20
2019-02-12T03:16:14.722Z,51.40
2019-02-12T03:18:42.827Z,51.70
2019-02-12T03:21:10.902Z,52.90
2019-02-12T03:23:39.244Z,53.20
2019-02-12T03:26:07.428Z,52.50
2019-02-12T03:28:35.435Z,51.90
2019-02-12T03:31:03.889Z,52.20
2019-02-12T03:33:32.380Z,52.50
2019-02-12T03:36:00.454Z,51.80
2019-02-12T03:38:28.639Z,52.00
2019-02-12T03:40:57.196Z,50.60
2019-02-12T03:43:25.716Z,50.60
2019-02-12T03:45:54.265Z,51.10
2019-02-12T03:48:22.792Z,50.60
2019-02-12T03:50:50.751Z,51.90
2019-02-12T03:53:19.307Z,52.10
2019-02-12T03:55:47.439Z,52.90
2019-02-12T03:58:16.169Z,53.20
2019-02-12T04:00:44.247Z,53.50
2019-02-12T04:03:12.437Z,53.30
2019-02-12T04:05:40.615Z,53.30
2019-02-12T04:08:08.707Z,53.30
2019-02-12T04:10:36.818Z,53.40
2019-02-12T04:13:05.082Z,53.80
2019-02-12T04:15:33.202Z,54.30
2019-02-12T04:18:01.486Z,53.60
2019-02-12T04:20:29.559Z,54.10
2019-02-12T04:22:57.475Z,54.40
2019-02-12T04:25:25.595Z,55.10
2019-02-12T04:27:55.411Z,54.20
2019-02-12T04:30:23.667Z,54.30
2019-02-12T04:32:51.746Z,53.70
2019-02-12T04:35:19.863Z,52.60
2019-02-12T04:37:47.819Z,53.20
2019-02-12T04:40:16.019Z,53.90
2019-02-12T04:42:44.044Z,53.80
2019-02-12T04:45:12.136Z,54.20
2019-02-12T04:47:40.290Z,54.60
2019-02-12T04:50:09.884Z,54.10
2019-02-12T04:52:37.934Z,54.60
2019-02-12T04:55:07.193Z,54.10
2019-02-12T04:57:35.145Z,53.90
2019-02-12T05:00:03.415Z,54.20
2019-02-12T05:02:31.387Z,53.60
2019-02-12T05:04:59.898Z,54.40
2019-02-12T05:07:27.901Z,54.40
2019-02-12T05:09:55.848Z,55.20
2019-02-12T05:12:24.819Z,56.30
2019-02-12T05:14:52.979Z,55.80
2019-02-12T05:17:21.250Z,54.90
2019-02-12T05:19:49.243Z,55.00
2019-02-12T05:22:17.315Z,54.90
2019-02-12T05:24:45.439Z,55.20
2019-02-12T05:27:13.468Z,54.90
2019-02-12T05:29:41.491Z,54.90
2019-02-12T05:32:09.601Z,54.30
2019-02-12T05:34:37.975Z,55.40
2019-02-12T05:37:06.011Z,55.80
2019-02-12T05:39:33.963Z,55.00
2019-02-12T05:42:01.973Z,55.40
2019-02-12T05:44:29.979Z,55.50
2019-02-12T05:46:57.958Z,55.50
2019-02-12T05:49:25.952Z,55.10
2019-02-12T05:51:55.263Z,54.70
2019-02-12T05:54:23.295Z,55.20
2019-02-12T05:56:51.365Z,54.50
2019-02-12T05:59:19.387Z,54.70
2019-02-12T06:01:47.402Z,54.70
2019-02-12T06:04:15.413Z,54.50
2019-02-12T06:06:43.499Z,55.20
2019-02-12T06:09:11.488Z,54.80
2019-02-12T06:11:39.556Z,55.30
2019-02-12T06:14:07.647Z,55.50
2019-02-12T06:16:35.652Z,56.00
2019-02-12T06:19:03.618Z,56.40
2019-02-12T06:21:31.698Z,54.30
2019-02-12T06:23:59.852Z,55.20
2019-02-12T06:26:27.962Z,55.80
2019-02-12T06:28:56.018Z,55.40
2019-02-12T06:31:24.087Z,55.50
2019-02-12T06:33:52.150Z,54.10
2019-02-12T06:36:20.203Z,55.20
2019-02-12T06:38:48.601Z,56.00
2019-02-12T06:41:16.595Z,55.90
2019-02-12T06:43:44.729Z,56.80
2019-02-12T06:46:12.857Z,57.20
2019-02-12T06:48:40.910Z,57.00
2019-02-12T06:51:08.908Z,56.60
2019-02-12T06:53:37.017Z,56.50
2019-02-12T06:56:05.100Z,56.20
2019-02-12T06:58:33.175Z,56.90
2019-02-12T07:01:01.227Z,57.40
2019-02-12T07:03:42.651Z,57.40
2019-02-12T07:06:15.317Z,57.00
2019-02-12T07:09:15.543Z,57.30
2019-02-12T07:12:20.037Z,57.60
2019-02-12T07:15:21.799Z,57.10
2019-02-12T07:18:38.591Z,55.80
2019-02-12T07:21:42.791Z,56.50
2019-02-12T07:25:10.040Z,58.00
2019-02-12T07:28:15.975Z,58.50
2019-02-12T07:31:46.819Z,59.30
2019-02-12T07:34:35.346Z,59.80
2019-02-12T07:37:25.406Z,59.90
2019-02-12T07:40:29.734Z,59.40
2019-02-12T07:43:42.018Z,60.00
2019-02-12T07:47:06.752Z,60.10
2019-02-12T07:49:42.139Z,60.40
2019-02-12T07:52:18.895Z,61.10
2019-02-12T07:55:03.037Z,61.40
2019-02-12T07:58:09.619Z,61.10
2019-02-12T08:01:08.689Z,59.90
2019-02-12T08:04:11.907Z,61.50
2019-02-12T08:07:16.739Z,62.10
2019-02-12T08:10:15.995Z,62.00
2019-02-12T08:13:06.857Z,61.00
2019-02-12T08:15:44.576Z,59.60
2019-02-12T08:18:44.575Z,59.30
2019-02-12T08:21:45.194Z,57.40
2019-02-12T08:24:42.937Z,57.90
2019-02-12T08:27:34.210Z,57.70
2019-02-12T08:30:29.725Z,57.70
2019-02-12T08:33:42.182Z,58.30
2019-02-12T08:36:42.323Z,56.40
2019-02-12T08:39:46.149Z,56.40
2019-02-12T08:43:03.527Z,56.90
2019-02-12T08:46:16.311Z,57.60
2019-02-12T08:49:14.390Z,56.20
2019-02-12T08:52:19.331Z,54.90
2019-02-12T08:55:01.862Z,53.50
2019-02-12T08:57:47.486Z,53.20
2019-02-12T09:00:47.438Z,51.40
2019-02-12T09:04:00.450Z,51.30
2019-02-12T09:07:14.489Z,52.20
2019-02-12T09:10:24.232Z,51.50
2019-02-12T09:13:43.176Z,53.20
2019-02-12T09:16:38.567Z,52.70
2019-02-12T09:19:46.695Z,52.10
2019-02-12T09:23:03.904Z,50.40
2019-02-12T09:25:45.420Z,49.10
2019-02-12T09:28:50.895Z,46.90
2019-02-12T09:32:27.759Z,48.50
2019-02-12T09:35:25.101Z,51.80
2019-02-12T09:38:25.900Z,49.40
2019-02-12T09:41:22.032Z,48.50
2019-02-12T09:44:37.218Z,46.30
2019-02-12T09:47:43.684Z,46.50
2019-02-12T09:50:28.537Z,44.90
2019-02-12T09:53:53.626Z,44.50
2019-02-12T09:56:51.393Z,45.60
2019-02-12T10:00:00.990Z,45.20
2019-02-12T10:03:23.240Z,43.60
2019-02-12T10:06:21.707Z,44.20
2019-02-12T10:09:17.999Z,44.00
2019-02-12T10:12:33.462Z,44.30
2019-02-12T10:15:38.399Z,44.10
2019-02-12T10:18:40.003Z,43.70
2019-02-12T10:21:52.952Z,41.50
2019-02-12T10:24:38.493Z,43.40
2019-02-12T10:28:00.215Z,42.00
2019-02-12T10:30:51.247Z,41.30
2019-02-12T10:33:19.322Z,39.50
2019-02-12T10:35:47.398Z,40.40
2019-02-12T10:38:15.633Z,38.00
2019-02-12T10:40:43.645Z,38.00
2019-02-12T10:43:11.733Z,36.00
2019-02-12T10:45:39.717Z,36.40
2019-02-12T10:48:07.810Z,36.90
2019-02-12T10:50:35.977Z,37.30
2019-02-12T10:53:03.999Z,36.80
2019-02-12T10:55:32.400Z,36.00
2019-02-12T10:58:00.474Z,35.70
2019-02-12T11:00:28.950Z,37.10
2019-02-12T11:02:56.950Z,37.20
2019-02-12T11:05:25.063Z,39.30
2019-02-12T11:07:53.401Z,40.30
2019-02-12T11:10:21.435Z,38.00
2019-02-12T11:12:49.494Z,39.10
2019-02-12T11:15:23.502Z,39.90
2019-02-12T11:17:51.595Z,40.20
2019-02-12T11:20:19.595Z,40.80
2019-02-12T11:22:48.197Z,39.30
2019-02-12T11:25:16.468Z,37.30
2019-02-12T11:27:44.486Z,38.20
2019-02-12T11:30:12.802Z,35.90
2019-02-12T11:32:40.806Z,34.70
2019-02-12T11:35:09.147Z,34.10
2019-02-12T11:37:37.195Z,34.20
2019-02-12T11:40:06.232Z,33.20
2019-02-12T11:42:34.268Z,34.00
2019-02-12T11:45:02.405Z,33.90
2019-02-12T11:47:30.406Z,34.00
2019-02-12T11:49:58.526Z,33.40
2019-02-12T11:52:26.684Z,34.50
2019-02-12T11:54:54.623Z,35.80
2019-02-12T11:57:22.727Z,34.10
2019-02-12T11:59:52.349Z,32.30
2019-02-12T12:02:22.555Z,33.00
2019-02-12T12:04:50.562Z,33.20
2019-02-12T12:07:19.530Z,33.90
2019-02-12T12:09:47.575Z,33.30
2019-02-12T12:12:15.678Z,33.60
2019-02-12T12:15:21.160Z,34.30
2019-02-12T12:17:48.207Z,33.90
2019-02-12T12:20:16.260Z,34.90
2019-02-12T12:22:44.215Z,34.60
2019-02-12T12:25:12.534Z,35.60
2019-02-12T12:27:40.607Z,36.40
2019-02-12T12:30:09.325Z,35.10
2019-02-12T12:32:37.439Z,34.10
2019-02-12T12:35:06.065Z,35.30
2019-02-12T12:37:34.107Z,32.60
2019-02-12T12:40:02.123Z,30.30
2019-02-12T12:42:30.103Z,30.20
2019-02-12T12:44:58.033Z,31.90
2019-02-12T12:47:25.987Z,31.30
2019-02-12T12:49:54.683Z,30.50
2019-02-12T12:52:22.750Z,31.00
2019-02-12T12:54:50.696Z,31.60
2019-02-12T12:57:18.746Z,29.70
2019-02-12T12:59:46.738Z,30.60
2019-02-12T13:02:14.911Z,32.50
2019-02-12T13:04:42.867Z,31.10
2019-02-12T13:07:10.888Z,30.10
2019-02-12T13:09:38.935Z,30.80
2019-02-12T13:12:07.038Z,28.40
2019-02-12T13:14:58.147Z,28.10
2019-02-12T13:17:26.620Z,28.10
2019-02-12T13:19:54.594Z,25.40
2019-02-12T13:22:22.567Z,26.80
2019-02-12T13:24:50.683Z,27.00
2019-02-12T13:27:18.667Z,29.00
2019-02-12T13:29:47.137Z,27.80
2019-02-12T13:32:15.144Z,26.20
2019-02-12T13:34:43.220Z,25.60
2019-02-12T13:39:38.483Z,25.90
2019-02-12T13:42:06.452Z,27.20
2019-02-12T13:44:34.378Z,26.00
2019-02-12T13:47:02.424Z,26.10
2019-02-12T13:49:30.414Z,26.60
2019-02-12T13:51:59.410Z,26.70
2019-02-12T13:54:27.580Z,27.00
2019-02-12T13:56:56.827Z,27.10
2019-02-12T13:59:25.003Z,27.70
2019-02-12T14:01:52.951Z,28.20
2019-02-12T14:04:20.987Z,28.50
2019-02-12T14:06:49.159Z,29.60
2019-02-12T14:09:17.224Z,28.70
2019-02-12T14:11:45.200Z,30.10
2019-02-12T14:14:21.722Z,28.20
2019-02-12T14:16:50.271Z,27.80
2019-02-12T14:19:18.303Z,28.60
2019-02-12T14:21:46.383Z,29.50
2019-02-12T14:24:14.352Z,29.90
2019-02-12T14:26:42.421Z,29.60
2019-02-12T14:29:10.582Z,27.90
2019-02-12T14:31:38.978Z,29.10
2019-02-12T14:34:07.053Z,27.50
2019-02-12T14:36:35.102Z,28.30
2019-02-12T14:39:04.778Z,29.30
2019-02-12T14:41:33.192Z,29.30
2019-02-12T14:44:01.267Z,30.20
2019-02-12T14:46:29.419Z,29.30
2019-02-12T14:48:57.483Z,28.90
2019-02-12T14:51:25.505Z,29.00
2019-02-12T14:53:53.655Z,28.90
2019-02-12T14:56:22.011Z,28.90
2019-02-12T14:58:50.038Z,28.60
2019-02-12T15:01:18.078Z,28.20
2019-02-12T15:03:46.059Z,27.70
2019-02-12T15:06:14.047Z,27.50
2019-02-12T15:11:09.317Z,28.50
2019-02-12T15:13:37.362Z,28.40
2019-02-12T15:16:11.662Z,28.60
2019-02-12T15:18:39.663Z,29.30
2019-02-12T15:21:07.724Z,29.00
2019-02-12T15:23:35.754Z,28.80
2019-02-12T15:26:03.758Z,29.80
2019-02-12T15:28:31.895Z,30.00
2019-02-12T15:30:59.977Z,29.70
2019-02-12T15:33:28.143Z,29.70
2019-02-12T15:35:56.149Z,29.30
2019-02-12T15:38:24.098Z,30.30
2019-02-12T15:40:52.118Z,30.80
2019-02-12T15:43:22.070Z,30.70
2019-02-12T15:45:50.177Z,30.00
2019-02-12T15:48:18.296Z,31.00
2019-02-12T15:50:46.358Z,31.00
2019-02-12T15:53:14.407Z,30.60
2019-02-12T15:55:50.828Z,31.30
2019-02-12T15:58:12.306Z,31.80
2019-02-12T16:00:41.521Z,33.70
2019-02-12T16:03:10.173Z,33.30
2019-02-12T16:05:38.179Z,33.90
2019-02-12T16:08:07.331Z,37.30
2019-02-12T16:10:37.518Z,40.00
2019-02-12T16:13:05.917Z,40.80
2019-02-12T16:16:13.701Z,42.10
2019-02-12T16:18:40.299Z,42.80
2019-02-12T16:21:08.346Z,43.70
2019-02-12T16:23:36.408Z,44.00
2019-02-12T16:26:04.425Z,44.00
2019-02-12T16:28:32.659Z,43.80
2019-02-12T16:31:00.958Z,43.80
2019-02-12T16:33:29.421Z,44.00
2019-02-12T16:35:57.892Z,44.50
2019-02-12T16:38:25.939Z,44.80
2019-02-12T16:40:53.959Z,45.00
2019-02-12T16:43:22.890Z,44.70
2019-02-12T16:45:59.158Z,45.00
2019-02-12T16:48:27.184Z,45.30
2019-02-12T16:50:55.178Z,45.40
2019-02-12T16:53:23.271Z,45.60
2019-02-12T16:55:51.220Z,45.40
2019-02-12T16:58:19.226Z,45.30
2019-02-12T17:00:47.539Z,45.00
2019-02-12T17:03:16.038Z,45.20
2019-02-12T17:05:44.089Z,45.50
2019-02-12T17:08:12.199Z,45.90
2019-02-12T17:10:40.236Z,45.60
2019-02-12T17:13:08.505Z,45.30
2019-02-12T17:16:28.160Z,45.20
2019-02-12T17:18:53.950Z,45.00
2019-02-12T17:21:22.011Z,45.70
2019-02-12T17:23:49.999Z,45.60
2019-02-12T17:26:17.959Z,46.20
2019-02-12T17:28:46.395Z,45.70
2019-02-12T17:31:14.383Z,45.20
2019-02-12T17:33:42.484Z,45.40
2019-02-12T17:36:10.571Z,45.30
2019-02-12T17:38:38.890Z,45.30
2019-02-12T17:41:07.010Z,45.40
2019-02-12T17:43:35.231Z,45.30
2019-02-12T17:46:03.482Z,44.80
2019-02-12T17:48:32.310Z,45.00
2019-02-12T17:51:01.210Z,44.60
2019-02-12T17:53:30.291Z,44.30
2019-02-12T17:55:59.099Z,44.20
2019-02-12T17:58:28.011Z,44.60
2019-02-12T18:00:56.827Z,44.40
2019-02-12T18:03:25.691Z,44.90
2019-02-12T18:05:54.586Z,44.60
2019-02-12T18:08:23.542Z,44.80
2019-02-12T18:10:52.383Z,44.70
2019-02-12T18:13:21.274Z,44.70
2019-02-12T18:16:10.632Z,45.30
2019-02-12T18:18:39.460Z,44.50
2019-02-12T18:21:08.436Z,44.70
2019-02-12T18:23:37.344Z,44.70
2019-02-12T18:26:06.295Z,44.20
2019-02-12T18:28:35.924Z,43.90
2019-02-12T18:31:04.813Z,44.90
2019-02-12T18:33:33.687Z,45.50
2019-02-12T18:36:02.638Z,45.30
2019-02-12T18:38:31.490Z,45.60
2019-02-12T18:41:00.439Z,44.50
2019-02-12T18:43:29.340Z,44.10
2019-02-12T18:45:58.599Z,44.30
2019-02-12T18:48:27.520Z,45.70
2019-02-12T18:50:56.348Z,45.70
2019-02-12T18:53:25.159Z,45.40
2019-02-12T18:55:54.037Z,45.50
2019-02-12T18:58:24.635Z,45.30
2019-02-12T19:00:53.574Z,45.70
2019-02-12T19:03:27.132Z,45.90
2019-02-12T19:05:56.775Z,46.50
2019-02-12T19:08:25.831Z,45.40
2019-02-12T19:10:57.043Z,45.90
2019-02-12T19:13:27.565Z,46.30
2019-02-12T19:16:44.050Z,45.80
2019-02-12T19:19:15.630Z,45.70
2019-02-12T19:21:44.462Z,46.30
2019-02-12T19:24:13.326Z,46.90
2019-02-12T19:26:49.616Z,47.30
2019-02-12T19:29:12.952Z,47.10
2019-02-12T19:31:44.356Z,47.10
2019-02-12T19:34:13.285Z,47.30
2019-02-12T19:37:11.337Z,46.50
2019-02-12T19:39:40.937Z,46.50
2019-02-12T19:42:10.394Z,47.40
2019-02-12T19:44:42.185Z,48.40
2019-02-12T19:47:11.438Z,47.60
2019-02-12T19:49:40.341Z,48.00
2019-02-12T19:52:09.845Z,48.40
2019-02-12T19:54:40.537Z,48.30
2019-02-12T19:57:10.624Z,48.40
2019-02-12T19:59:39.582Z,48.20
2019-02-12T20:02:08.960Z,48.00
2019-02-12T20:04:38.516Z,48.00
2019-02-12T20:07:07.722Z,48.60
2019-02-12T20:09:36.630Z,48.60
2019-02-12T20:12:05.540Z,48.60
2019-02-12T20:14:59.336Z,48.50
2019-02-12T20:17:28.075Z,48.50
2019-02-12T20:19:57.215Z,49.20
2019-02-12T20:22:26.223Z,49.20
2019-02-12T20:24:55.148Z,49.10
2019-02-12T20:27:24.039Z,49.60
2019-02-12T20:30:07.132Z,49.70
2019-02-12T20:32:35.715Z,49.80
2019-02-12T20:35:04.955Z,49.70
2019-02-12T20:37:33.896Z,50.00
2019-02-12T20:40:03.629Z,49.90
2019-02-12T20:42:32.457Z,50.00
2019-02-12T20:45:01.384Z,50.40
2019-02-12T20:47:30.359Z,50.40
2019-02-12T20:49:59.238Z,50.40
2019-02-12T20:52:28.155Z,50.30
2019-02-12T20:54:57.066Z,50.60
2019-02-12T20:57:25.934Z,50.80
2019-02-12T20:59:54.648Z,50.70
2019-02-12T21:02:23.508Z,50.30
2019-02-12T21:04:52.290Z,50.90
2019-02-12T21:07:21.230Z,51.00
2019-02-12T21:09:52.012Z,51.10
2019-02-12T21:12:20.848Z,50.60
2019-02-12T21:15:29.740Z,50.70
2019-02-12T21:17:57.863Z,51.40
2019-02-12T21:20:26.695Z,51.30
2019-02-12T21:22:55.555Z,51.70
2019-02-12T21:25:39.443Z,51.60
2019-02-12T21:28:08.117Z,51.30
2019-02-12T21:30:36.735Z,50.80
2019-02-12T21:33:05.063Z,50.30
2019-02-12T21:35:33.623Z,50.90
2019-02-12T21:38:02.731Z,51.30
2019-02-12T21:40:31.023Z,51.00
2019-02-12T21:42:59.139Z,50.50
2019-02-12T21:45:27.215Z,50.70
2019-02-12T21:47:55.273Z,51.00
2019-02-12T21:50:23.942Z,50.60
2019-02-12T21:52:51.945Z,50.40
2019-02-12T21:55:20.295Z,49.90
2019-02-12T21:57:48.468Z,49.70
2019-02-12T22:00:16.644Z,49.40
2019-02-12T22:02:44.711Z,49.30
2019-02-12T22:05:13.226Z,49.20
2019-02-12T22:07:41.256Z,49.20
2019-02-12T22:10:11.424Z,49.20
2019-02-12T22:12:39.442Z,49.20
2019-02-12T22:15:51.201Z,48.80
2019-02-12T22:18:17.533Z,48.80
2019-02-12T22:20:45.601Z,49.20
2019-02-12T22:23:13.606Z,49.50
2019-02-12T22:25:41.689Z,49.70
2019-02-12T22:28:09.699Z,49.70
2019-02-12T22:30:37.686Z,49.00
2019-02-12T22:33:05.759Z,49.60
2019-02-12T22:35:33.678Z,50.00
2019-02-12T22:38:01.618Z,49.90
2019-02-12T22:40:29.599Z,49.60
2019-02-12T22:42:57.579Z,49.80
2019-02-12T22:45:25.492Z,49.70
2019-02-12T22:47:53.532Z,49.80
2019-02-12T22:50:22.664Z,49.90
2019-02-12T22:52:50.644Z,50.20
2019-02-12T22:55:18.839Z,50.30
2019-02-12T22:57:49.177Z,50.20
2019-02-12T23:00:55.604Z,50.20
2019-02-12T23:03:24.719Z,50.30
2019-02-12T23:05:52.794Z,50.10
2019-02-12T23:08:21.279Z,49.90
2019-02-12T23:10:49.352Z,49.90
2019-02-12T23:13:17.514Z,49.40
2019-02-12T23:15:45.666Z,48.90
2019-02-12T23:18:13.600Z,48.90
2019-02-12T23:20:41.604Z,48.60
2019-02-12T23:23:09.713Z,48.80
2019-02-12T23:25:37.713Z,49.00
2019-02-12T23:28:05.686Z,48.30
2019-02-12T23:30:33.715Z,46.90
2019-02-12T23:33:01.770Z,48.30
2019-02-12T23:35:29.707Z,49.30
2019-02-12T23:37:57.659Z,48.90
2019-02-12T23:40:25.683Z,48.90
2019-02-12T23:42:53.757Z,49.00
2019-02-12T23:45:21.934Z,48.60
2019-02-12T23:47:49.950Z,48.40
2019-02-12T23:50:18.083Z,48.90
2019-02-12T23:52:46.139Z,48.30
2019-02-12T23:55:14.197Z,49.20
2019-02-12T23:57:42.172Z,48.90
